createdAt,value
2018-04-10T00:02:22.698Z,27.50
2018-04-10T00:04:50.455Z,27.80
2018-04-10T00:07:18.172Z,25.27
2018-04-10T00:09:45.875Z,28.50
2018-04-10T00:12:13.609Z,28.90
2018-04-10T00:14:41.314Z,27.60
2018-04-10T00:17:09.103Z,28.90
2018-04-10T00:19:36.840Z,26.97
2018-04-10T00:22:05.593Z,28.60
2018-04-10T00:24:33.319Z,27.87
2018-04-10T00:27:01.089Z,27.83
2018-04-10T00:29:28.815Z,25.87
2018-04-10T00:31:56.547Z,29.53
2018-04-10T00:34:24.287Z,25.40
2018-04-10T00:36:52.004Z,29.17
2018-04-10T00:39:20.501Z,26.60
2018-04-10T00:41:48.231Z,30.70
2018-04-10T00:44:15.960Z,25.60
2018-04-10T00:46:43.700Z,24.20
2018-04-10T00:49:11.415Z,25.03
2018-04-10T00:51:39.130Z,25.90
2018-04-10T00:54:06.848Z,24.23
2018-04-10T00:56:34.619Z,27.27
2018-04-10T00:59:02.356Z,27.07
2018-04-10T01:01:30.090Z,26.60
2018-04-10T01:03:57.816Z,24.97
2018-04-10T01:06:25.531Z,28.17
2018-04-10T01:08:53.313Z,29.97
2018-04-10T01:11:21.048Z,25.00
2018-04-10T01:13:49.541Z,26.43
2018-04-10T01:16:17.284Z,26.80
2018-04-10T01:18:45.021Z,28.63
2018-04-10T01:21:12.760Z,27.13
2018-04-10T01:23:40.485Z,27.50
2018-04-10T01:26:08.986Z,26.60
2018-04-10T01:28:36.733Z,28.77
2018-04-10T01:31:04.460Z,24.77
2018-04-10T01:33:32.185Z,25.13
2018-04-10T01:35:59.924Z,27.90
2018-04-10T01:38:27.696Z,27.20
2018-04-10T01:40:56.619Z,26.00
2018-04-10T01:43:24.380Z,25.63
2018-04-10T01:45:52.107Z,27.47
2018-04-10T01:48:19.831Z,28.07
2018-04-10T01:50:47.561Z,29.73
2018-04-10T01:53:15.287Z,25.90
2018-04-10T01:55:43.024Z,27.60
2018-04-10T01:58:10.808Z,26.67
2018-04-10T02:00:38.567Z,25.07
2018-04-10T02:03:06.282Z,27.60
2018-04-10T02:05:34.773Z,24.70
2018-04-10T02:08:02.509Z,24.87
2018-04-10T02:15:36.965Z,26.83
2018-04-10T02:18:04.792Z,24.77
2018-04-10T02:20:32.550Z,26.53
2018-04-10T02:23:00.311Z,28.00
2018-04-10T02:25:28.087Z,25.63
2018-04-10T02:27:55.887Z,24.93
2018-04-10T02:30:23.702Z,23.57
2018-04-10T02:32:52.247Z,24.33
2018-04-10T02:35:20.176Z,27.27
2018-04-10T02:37:47.931Z,25.23
2018-04-10T02:40:16.551Z,26.23
2018-04-10T02:42:44.360Z,25.63
2018-04-10T02:45:12.116Z,25.77
2018-04-10T02:47:39.880Z,26.03
2018-04-10T02:50:07.653Z,26.13
2018-04-10T02:52:35.424Z,25.73
2018-04-10T02:55:03.202Z,24.80
2018-04-10T02:57:31.941Z,25.10
2018-04-10T02:59:59.753Z,25.13
2018-04-10T03:02:27.562Z,25.03
2018-04-10T03:04:55.346Z,25.70
2018-04-10T03:07:23.100Z,26.60
2018-04-10T03:09:50.889Z,26.77
2018-04-10T03:12:18.671Z,21.93
2018-04-10T03:14:46.478Z,23.07
2018-04-10T03:17:14.302Z,24.40
2018-04-10T03:19:42.105Z,23.93
2018-04-10T03:22:10.681Z,26.00
2018-04-10T03:24:38.467Z,27.90
2018-04-10T03:27:06.281Z,27.07
2018-04-10T03:29:34.035Z,26.30
2018-04-10T03:32:01.834Z,27.50
2018-04-10T03:34:29.624Z,25.20
2018-04-10T03:36:58.192Z,26.27
2018-04-10T03:39:25.989Z,29.93
2018-04-10T03:41:53.770Z,27.27
2018-04-10T03:44:21.546Z,27.93
2018-04-10T03:46:49.322Z,29.13
2018-04-10T03:49:17.268Z,24.23
2018-04-10T03:51:45.822Z,24.47
2018-04-10T03:54:13.622Z,24.70
2018-04-10T03:56:42.360Z,25.47
2018-04-10T03:59:10.505Z,27.33
2018-04-10T04:01:38.218Z,26.07
2018-04-10T04:04:06.121Z,27.33
2018-04-10T04:06:33.850Z,25.83
2018-04-10T04:09:01.585Z,23.87
2018-04-10T04:11:29.336Z,27.10
2018-04-10T04:13:57.069Z,24.73
2018-04-10T04:16:36.517Z,28.70
2018-04-10T04:19:16.096Z,27.00
2018-04-10T04:22:09.431Z,24.43
2018-04-10T04:37:44.542Z,24.80
2018-04-10T04:40:12.403Z,23.90
2018-04-10T04:42:40.118Z,24.83
2018-04-10T04:45:08.204Z,27.23
2018-04-10T04:47:37.194Z,24.07
2018-04-10T04:50:05.732Z,27.77
2018-04-10T04:52:33.483Z,27.13
2018-04-10T04:55:01.213Z,26.17
2018-04-10T04:57:28.966Z,28.67
2018-04-10T04:59:56.816Z,27.90
2018-04-10T05:02:24.549Z,30.27
2018-04-10T05:04:52.513Z,25.83
2018-04-10T05:07:20.245Z,26.30
2018-04-10T05:09:48.024Z,29.47
2018-04-10T05:12:15.795Z,25.60
2018-04-10T05:14:43.729Z,30.40
2018-04-10T05:17:11.473Z,25.20
2018-04-10T05:19:39.220Z,22.17
2018-04-10T05:22:06.988Z,23.13
2018-04-10T05:24:34.724Z,26.43
2018-04-10T05:27:02.464Z,23.97
2018-04-10T05:29:30.972Z,23.93
2018-04-10T05:31:58.680Z,24.43
2018-04-10T05:34:27.419Z,23.27
2018-04-10T05:36:55.299Z,26.07
2018-04-10T05:39:23.071Z,22.50
2018-04-10T05:41:52.109Z,31.40
2018-04-10T05:44:19.832Z,23.10
2018-04-10T05:46:47.552Z,27.00
2018-04-10T05:49:15.347Z,23.07
2018-04-10T05:51:43.125Z,26.33
2018-04-10T05:54:10.885Z,23.00
2018-04-10T05:56:38.615Z,25.47
2018-04-10T05:59:06.354Z,26.50
2018-04-10T06:01:34.162Z,22.53
2018-04-10T06:04:01.967Z,31.47
2018-04-10T06:06:30.207Z,23.60
2018-04-10T06:08:57.948Z,25.90
2018-04-10T06:11:25.699Z,22.10
2018-04-10T06:13:53.429Z,23.87
2018-04-10T06:16:21.147Z,25.33
2018-04-10T06:18:48.901Z,23.90
2018-04-10T06:21:16.674Z,27.63
2018-04-10T06:23:44.391Z,22.20
2018-04-10T06:26:12.126Z,22.70
2018-04-10T06:28:39.866Z,26.97
2018-04-10T06:31:07.602Z,22.27
2018-04-10T06:33:35.349Z,16.90
2018-04-10T06:36:03.122Z,13.07
2018-04-10T06:38:30.890Z,11.33
2018-04-10T06:40:58.629Z,11.30
2018-04-10T06:43:26.369Z,11.17
2018-04-10T06:45:54.127Z,21.43
2018-04-10T06:48:21.867Z,26.10
2018-04-10T06:50:49.601Z,21.90
2018-04-10T06:53:18.123Z,19.43
2018-04-10T06:55:45.861Z,19.50
2018-04-10T06:58:13.604Z,19.40
2018-04-10T07:00:41.320Z,14.37
2018-04-10T07:03:09.051Z,12.30
2018-04-10T07:05:37.641Z,5.33
2018-04-10T07:08:05.505Z,6.67
2018-04-10T07:10:33.996Z,6.00
2018-04-10T07:13:01.755Z,6.93
2018-04-10T07:15:29.485Z,3.70
2018-04-10T07:17:57.200Z,4.07
2018-04-10T07:20:24.915Z,4.20
2018-04-10T07:22:52.640Z,6.90
2018-04-10T07:25:23.190Z,10.83
2018-04-10T07:27:50.945Z,16.80
2018-04-10T07:30:18.658Z,12.80
2018-04-10T07:32:46.384Z,15.33
2018-04-10T07:35:14.105Z,8.40
2018-04-10T07:37:41.859Z,8.93
2018-04-10T07:40:09.601Z,5.30
2018-04-10T07:42:37.340Z,6.23
2018-04-10T07:45:05.064Z,5.93
2018-04-10T07:47:33.915Z,5.53
2018-04-10T07:50:01.631Z,5.07
2018-04-10T07:52:29.365Z,6.17
2018-04-10T07:54:57.086Z,6.93
2018-04-10T07:57:24.825Z,3.50
2018-04-10T07:59:53.317Z,6.17
2018-04-10T08:02:24.440Z,3.73
2018-04-10T08:04:52.200Z,6.37
2018-04-10T08:07:19.915Z,5.20
2018-04-10T08:09:47.739Z,3.83
2018-04-10T08:12:15.497Z,5.60
2018-04-10T08:14:43.237Z,4.43
2018-04-10T08:17:10.972Z,2.40
2018-04-10T08:19:38.689Z,1.37
2018-04-10T08:22:06.462Z,4.03
2018-04-10T08:24:34.177Z,4.70
2018-04-10T08:27:01.910Z,6.50
2018-04-10T08:29:29.635Z,6.50
2018-04-10T08:31:57.348Z,8.00
2018-04-10T08:34:25.099Z,8.53
2018-04-10T08:36:52.823Z,7.80
2018-04-10T08:39:20.553Z,1.73
2018-04-10T08:41:49.131Z,2.93
2018-04-10T08:44:16.883Z,2.80
2018-04-10T08:46:44.685Z,2.97
2018-04-10T08:49:12.427Z,6.50
2018-04-10T08:51:40.168Z,6.67
2018-04-10T08:54:07.949Z,32.07
2018-04-10T08:56:35.687Z,7.00
2018-04-10T08:59:03.432Z,4.17
2018-04-10T09:01:31.330Z,4.67
2018-04-10T09:03:59.084Z,1.67
2018-04-10T09:06:26.796Z,2.47
2018-04-10T09:08:54.557Z,3.23
2018-04-10T09:11:23.764Z,2.93
2018-04-10T09:13:51.519Z,3.03
2018-04-10T09:16:19.235Z,1.40
2018-04-10T09:18:46.987Z,2.10
2018-04-10T09:21:14.711Z,2.67
2018-04-10T09:23:42.418Z,2.17
2018-04-10T09:26:10.158Z,2.00
2018-04-10T09:28:37.876Z,3.43
2018-04-10T09:31:05.603Z,2.70
2018-04-10T09:33:33.338Z,4.50
2018-04-10T09:36:01.100Z,2.10
2018-04-10T09:38:28.871Z,2.50
2018-04-10T09:40:56.617Z,3.00
2018-04-10T09:43:24.371Z,3.27
2018-04-10T09:45:52.101Z,4.03
2018-04-10T09:48:19.824Z,3.63
2018-04-10T09:50:47.560Z,2.80
2018-04-10T09:53:15.308Z,5.13
2018-04-10T09:55:43.068Z,3.03
2018-04-10T09:58:10.793Z,2.50
2018-04-10T10:05:47.152Z,4.00
2018-04-10T10:08:14.879Z,6.50
2018-04-10T10:10:43.273Z,4.10
2018-04-10T10:13:11.818Z,4.37
2018-04-10T10:15:39.566Z,5.73
2018-04-10T10:18:07.311Z,3.93
2018-04-10T10:20:35.055Z,1.60
2018-04-10T10:23:03.067Z,2.37
2018-04-10T10:25:31.009Z,2.17
2018-04-10T10:27:58.769Z,1.40
2018-04-10T10:30:26.512Z,5.27
2018-04-10T10:32:54.222Z,4.90
2018-04-10T10:35:21.979Z,2.20
2018-04-10T10:37:49.708Z,1.70
2018-04-10T10:40:17.518Z,2.33
2018-04-10T10:42:45.339Z,2.87
2018-04-10T10:45:13.139Z,5.50
2018-04-10T10:47:40.874Z,4.63
2018-04-10T10:50:08.643Z,3.17
2018-04-10T10:52:36.393Z,3.53
2018-04-10T10:55:04.283Z,2.70
2018-04-10T10:57:32.028Z,4.40
2018-04-10T10:59:59.758Z,4.03
2018-04-10T11:02:27.506Z,2.40
2018-04-10T11:04:55.249Z,3.63
2018-04-10T11:07:23.009Z,3.10
2018-04-10T11:09:50.789Z,2.83
2018-04-10T11:12:18.541Z,3.53
2018-04-10T11:14:46.373Z,3.00
2018-04-10T11:17:14.125Z,3.63
2018-04-10T11:19:41.878Z,6.03
2018-04-10T11:22:09.608Z,6.60
2018-04-10T11:24:37.366Z,12.70
2018-04-10T11:27:05.090Z,5.00
2018-04-10T11:29:33.551Z,4.57
2018-04-10T11:32:01.277Z,3.40
2018-04-10T11:34:29.021Z,5.43
2018-04-10T11:36:56.723Z,3.97
2018-04-10T11:39:24.460Z,4.60
2018-04-10T11:41:52.490Z,3.87
2018-04-10T11:44:21.015Z,4.30
2018-04-10T11:46:48.739Z,5.90
2018-04-10T11:49:16.442Z,6.70
2018-04-10T11:51:46.429Z,5.47
2018-04-10T11:54:14.300Z,3.10
2018-04-10T11:56:42.064Z,4.03
2018-04-10T11:59:09.805Z,6.27
2018-04-10T12:01:37.580Z,3.70
2018-04-10T12:04:05.359Z,7.53
2018-04-10T12:06:34.348Z,5.67
2018-04-10T12:09:02.131Z,4.90
2018-04-10T12:11:29.985Z,2.77
2018-04-10T12:13:58.461Z,3.67
2018-04-10T12:16:26.864Z,2.90
2018-04-10T12:18:54.572Z,4.87
2018-04-10T12:21:22.307Z,5.40
2018-04-10T12:23:50.019Z,5.77
2018-04-10T12:26:17.717Z,6.20
2018-04-10T12:28:45.486Z,4.33
2018-04-10T12:31:13.194Z,7.10
2018-04-10T12:33:40.983Z,6.63
2018-04-10T12:36:09.738Z,4.53
2018-04-10T12:38:37.521Z,4.97
2018-04-10T12:41:05.805Z,9.77
2018-04-10T12:43:34.269Z,4.73
2018-04-10T12:46:02.029Z,5.03
2018-04-10T12:48:29.928Z,2.40
2018-04-10T12:50:57.728Z,4.00
2018-04-10T12:53:25.649Z,4.60
2018-04-10T12:55:53.416Z,6.70
2018-04-10T12:58:23.982Z,6.07
2018-04-10T13:01:13.048Z,7.73
2018-04-10T13:03:41.233Z,6.50
2018-04-10T13:06:09.936Z,2.97
2018-04-10T13:08:37.717Z,3.40
2018-04-10T13:11:05.461Z,7.27
2018-04-10T13:13:42.191Z,3.93
2018-04-10T13:16:10.006Z,6.23
2018-04-10T13:18:37.854Z,3.60
2018-04-10T13:21:34.555Z,3.70
2018-04-10T13:27:06.128Z,4.20
2018-04-10T13:29:33.896Z,6.50
2018-04-10T13:32:04.071Z,6.80
2018-04-10T13:34:31.900Z,5.03
2018-04-10T13:37:07.154Z,2.40
2018-04-10T13:39:34.917Z,2.60
2018-04-10T13:42:02.693Z,3.43
2018-04-10T13:44:30.555Z,5.50
2018-04-10T13:46:58.373Z,3.57
2018-04-10T13:49:26.308Z,2.50
2018-04-10T13:51:54.118Z,2.60
2018-04-10T13:54:24.759Z,3.00
2018-04-10T13:56:56.862Z,4.27
2018-04-10T13:59:25.587Z,4.17
2018-04-10T14:01:55.428Z,6.67
2018-04-10T14:04:38.759Z,2.20
2018-04-10T14:07:07.566Z,2.57
2018-04-10T14:09:37.673Z,3.60
2018-04-10T14:12:05.717Z,4.77
2018-04-10T14:14:38.061Z,3.37
2018-04-10T14:17:07.989Z,3.73
2018-04-10T14:22:16.863Z,5.60
2018-04-10T14:29:00.677Z,6.20
2018-04-10T14:31:28.486Z,4.33
2018-04-10T14:33:56.320Z,5.43
2018-04-10T14:36:33.359Z,7.83
2018-04-10T14:39:01.940Z,4.90
2018-04-10T14:41:36.794Z,5.80
2018-04-10T14:44:05.355Z,3.67
2018-04-10T14:46:33.139Z,7.33
2018-04-10T14:49:00.951Z,4.47
2018-04-10T14:51:28.755Z,4.20
2018-04-10T14:54:25.949Z,3.00
2018-04-10T14:56:55.144Z,3.33
2018-04-10T14:59:51.599Z,2.80
2018-04-10T15:02:22.745Z,7.77
2018-04-10T15:04:52.948Z,2.97
2018-04-10T15:19:37.143Z,2.63
2018-04-10T15:22:04.962Z,3.40
2018-04-10T15:24:32.720Z,4.87
2018-04-10T15:27:01.373Z,3.77
2018-04-10T15:29:29.127Z,3.97
2018-04-10T15:31:58.016Z,5.17
2018-04-10T15:34:25.717Z,2.27
2018-04-10T15:36:53.442Z,2.53
2018-04-10T15:39:21.599Z,3.13
2018-04-10T15:41:51.143Z,4.73
2018-04-10T15:44:25.335Z,3.00
2018-04-10T15:46:53.129Z,3.40
2018-04-10T15:49:21.630Z,2.80
2018-04-10T15:51:53.837Z,5.13
2018-04-10T15:54:21.644Z,4.90
2018-04-10T15:56:49.410Z,5.43
2018-04-10T15:59:24.231Z,3.93
2018-04-10T16:02:24.831Z,1.97
2018-04-10T16:04:52.627Z,2.37
2018-04-10T16:07:21.095Z,2.60
2018-04-10T16:09:49.014Z,3.27
2018-04-10T16:12:20.987Z,3.30
2018-04-10T16:28:07.897Z,3.40
2018-04-10T16:30:36.645Z,3.63
2018-04-10T16:33:04.524Z,1.63
2018-04-10T16:35:32.476Z,2.33
2018-04-10T16:38:00.308Z,4.07
2018-04-10T16:40:30.685Z,2.73
2018-04-10T16:43:02.586Z,2.90
2018-04-10T16:45:31.260Z,1.10
2018-04-10T16:50:45.990Z,4.17
2018-04-10T16:53:13.786Z,1.90
2018-04-10T16:55:43.929Z,2.80
2018-04-10T16:58:11.709Z,4.20
2018-04-10T17:00:39.583Z,2.43
2018-04-10T17:03:08.544Z,3.67
2018-04-10T17:05:36.435Z,5.30
2018-04-10T17:08:04.309Z,4.20
2018-04-10T17:10:32.141Z,2.50
2018-04-10T17:13:00.802Z,1.50
2018-04-10T17:15:29.244Z,3.00
2018-04-10T17:17:57.048Z,3.50
2018-04-10T17:20:25.098Z,2.87
2018-04-10T17:22:54.378Z,2.80
2018-04-10T17:25:22.138Z,2.97
2018-04-10T17:28:04.420Z,2.63
2018-04-10T17:30:34.878Z,4.60
2018-04-10T17:33:02.707Z,2.30
2018-04-10T17:35:30.703Z,3.80
2018-04-10T17:38:33.226Z,3.00
2018-04-10T17:41:04.036Z,1.70
2018-04-10T17:43:32.006Z,1.43
2018-04-10T17:45:59.835Z,2.00
2018-04-10T17:48:27.769Z,3.00
2018-04-10T17:50:55.621Z,2.23
2018-04-10T17:53:26.100Z,1.83
2018-04-10T17:55:53.938Z,4.17
2018-04-10T17:58:25.608Z,3.30
2018-04-10T18:00:53.502Z,2.23
2018-04-10T18:03:26.157Z,3.30
2018-04-10T18:05:53.963Z,2.83
2018-04-10T18:08:21.709Z,2.23
2018-04-10T18:10:49.492Z,2.40
2018-04-10T18:13:17.382Z,3.53
2018-04-10T18:15:45.093Z,3.43
2018-04-10T18:18:13.550Z,1.77
2018-04-10T18:20:41.475Z,3.33
2018-04-10T18:23:10.058Z,3.07
2018-04-10T18:25:38.057Z,3.30
2018-04-10T18:28:05.917Z,2.90
2018-04-10T18:30:33.914Z,2.50
2018-04-10T18:33:01.996Z,2.13
2018-04-10T18:35:29.881Z,4.03
2018-04-10T18:37:57.779Z,2.30
2018-04-10T18:40:25.716Z,2.50
2018-04-10T18:42:53.644Z,1.93
2018-04-10T18:45:21.596Z,2.30
2018-04-10T18:47:51.923Z,1.57
2018-04-10T18:50:20.210Z,3.80
2018-04-10T18:52:48.214Z,3.17
2018-04-10T18:55:16.952Z,3.10
2018-04-10T18:57:45.010Z,2.93
2018-04-10T19:00:13.628Z,1.43
2018-04-10T19:02:42.221Z,2.10
2018-04-10T19:05:10.154Z,4.60
2018-04-10T19:07:37.940Z,2.93
2018-04-10T19:10:05.997Z,2.83
2018-04-10T19:12:33.959Z,3.47
2018-04-10T19:15:03.142Z,3.77
2018-04-10T19:17:32.703Z,9.07
2018-04-10T19:20:02.746Z,6.20
2018-04-10T19:22:32.099Z,2.67
2018-04-10T19:25:01.888Z,3.73
2018-04-10T19:27:30.617Z,4.33
2018-04-10T19:29:59.837Z,4.90
2018-04-10T19:32:28.203Z,3.40
2018-04-10T19:34:57.946Z,3.60
2018-04-10T19:37:27.136Z,8.20
2018-04-10T19:39:55.521Z,6.40
2018-04-10T19:42:24.778Z,7.80
2018-04-10T19:44:54.317Z,4.60
2018-04-10T19:47:22.464Z,5.80
2018-04-10T19:49:50.846Z,7.80
2018-04-10T19:52:18.784Z,3.47
2018-04-10T19:54:47.191Z,5.30
2018-04-10T19:57:18.206Z,4.63
2018-04-10T19:59:46.836Z,4.73
2018-04-10T20:02:14.576Z,4.07
2018-04-10T20:04:42.458Z,6.10
2018-04-10T20:07:10.265Z,4.90
2018-04-10T20:09:38.113Z,4.00
2018-04-10T20:12:06.075Z,3.87
2018-04-10T20:14:33.857Z,3.67
2018-04-10T20:17:01.700Z,5.00
2018-04-10T20:19:29.489Z,3.40
2018-04-10T20:21:57.323Z,4.20
2018-04-10T20:24:25.123Z,3.10
2018-04-10T20:26:52.939Z,2.03
2018-04-10T20:29:20.759Z,1.90
2018-04-10T20:31:48.542Z,1.63
2018-04-10T20:34:16.420Z,3.30
2018-04-10T20:36:44.273Z,5.13
2018-04-10T20:39:12.047Z,3.90
2018-04-10T20:41:39.802Z,2.60
2018-04-10T20:44:07.613Z,2.87
2018-04-10T20:46:35.405Z,1.40
2018-04-10T20:49:03.262Z,3.57
2018-04-10T20:51:31.564Z,2.43
2018-04-10T20:53:59.304Z,4.07
2018-04-10T20:56:27.291Z,2.90
2018-04-10T20:58:55.101Z,3.00
2018-04-10T21:01:22.879Z,1.93
2018-04-10T21:03:50.717Z,2.57
2018-04-10T21:06:18.504Z,2.00
2018-04-10T21:08:46.336Z,6.83
2018-04-10T21:11:14.149Z,4.10
2018-04-10T21:13:42.010Z,2.00
2018-04-10T21:16:09.855Z,3.70
2018-04-10T21:18:37.708Z,5.03
2018-04-10T21:21:05.550Z,2.63
2018-04-10T21:23:33.305Z,3.83
2018-04-10T21:26:01.150Z,4.13
2018-04-10T21:28:28.974Z,4.20
2018-04-10T21:30:56.839Z,5.37
2018-04-10T21:33:24.617Z,6.47
2018-04-10T21:35:52.417Z,6.43
2018-04-10T21:38:20.281Z,3.60
2018-04-10T21:40:48.048Z,4.43
2018-04-10T21:43:21.518Z,5.17
2018-04-10T21:45:49.410Z,6.43
2018-04-10T21:48:18.061Z,5.70
2018-04-10T21:50:45.908Z,4.07
2018-04-10T21:53:13.784Z,4.93
2018-04-10T21:55:41.681Z,5.03
2018-04-10T21:58:10.170Z,2.93
2018-04-10T22:00:38.052Z,4.30
2018-04-10T22:03:05.949Z,7.63
2018-04-10T22:05:33.853Z,3.83
2018-04-10T22:08:01.713Z,4.80
2018-04-10T22:10:29.580Z,4.00
2018-04-10T22:12:57.437Z,3.23
2018-04-10T22:15:26.054Z,3.67
2018-04-10T22:17:53.855Z,3.37
2018-04-10T22:20:21.725Z,4.00
2018-04-10T22:22:49.557Z,4.00
2018-04-10T22:25:17.323Z,3.63
2018-04-10T22:27:45.106Z,5.53
2018-04-10T22:30:12.943Z,7.70
2018-04-10T22:32:41.626Z,2.97
2018-04-10T22:35:09.370Z,4.23
2018-04-10T22:37:37.253Z,8.10
2018-04-10T22:40:05.102Z,2.80
2018-04-10T22:42:33.375Z,3.93
2018-04-10T22:45:01.976Z,3.40
2018-04-10T22:47:29.774Z,4.17
2018-04-10T22:49:57.565Z,4.53
2018-04-10T22:52:25.365Z,4.30
2018-04-10T22:54:54.150Z,3.80
2018-04-10T22:57:21.907Z,4.73
2018-04-10T22:59:49.753Z,5.13
2018-04-10T23:02:17.529Z,3.47
2018-04-10T23:04:45.349Z,5.40
2018-04-10T23:07:13.161Z,7.40
2018-04-10T23:09:40.935Z,4.73
2018-04-10T23:12:08.767Z,6.30
2018-04-10T23:14:36.600Z,4.97
2018-04-10T23:17:04.418Z,5.60
2018-04-10T23:19:32.187Z,3.70
2018-04-10T23:22:00.025Z,8.83
2018-04-10T23:24:28.596Z,5.40
2018-04-10T23:26:56.404Z,5.10
2018-04-10T23:29:24.168Z,5.33
2018-04-10T23:31:51.974Z,8.23
2018-04-10T23:34:19.818Z,5.30
2018-04-10T23:36:47.694Z,5.50
2018-04-10T23:39:15.487Z,7.23
2018-04-10T23:41:43.329Z,7.23
2018-04-10T23:44:11.923Z,7.70
2018-04-10T23:46:39.698Z,7.60
2018-04-10T23:49:07.453Z,4.97
2018-04-10T23:51:35.236Z,5.40
2018-04-10T23:54:02.987Z,7.07
2018-04-10T23:56:31.204Z,5.20
2018-04-10T23:58:58.973Z,5.70
